Time;durP1;ratioP1;P1;durP2;ratioP2;P2;SDS_P1;SDS_P2;PMS_P1;PMS_P2;Temp;Humidity;BMP_temperature;BMP_pressure;BME280_temperature;BME280_humidity;BME280_pressure;Samples;Min_cycle;Max_cycle;Signal;HPM_P1;HPM_P2
2021/12/20 00:00:38;;;;;;;6.63;1.85;;;2.80;99.90;;;;;;5044718;28;20021;-72
2021/12/20 00:03:04;;;;;;;5.55;2.20;;;2.80;99.90;;;;;;5044609;28;20124;-73
2021/12/20 00:05:30;;;;;;;8.18;1.60;;;2.80;99.90;;;;;;5043348;28;20029;-73
2021/12/20 00:07:56;;;;;;;14.43;1.70;;;2.80;99.90;;;;;;5043230;28;20505;-74
2021/12/20 00:10:26;;;;;;;6.03;1.52;;;2.80;99.90;;;;;;5044826;28;20052;-75
2021/12/20 00:12:52;;;;;;;2.88;1.45;;;2.80;99.90;;;;;;5044578;28;20049;-75
2021/12/20 00:15:19;;;;;;;6.63;1.95;;;2.70;99.90;;;;;;5043363;28;20032;-74
2021/12/20 00:17:45;;;;;;;7.18;2.63;;;2.60;99.90;;;;;;5044511;28;20025;-73
2021/12/20 00:20:12;;;;;;;7.00;1.48;;;2.60;99.90;;;;;;5044417;28;20049;-73
2021/12/20 00:22:39;;;;;;;13.25;3.33;;;2.60;99.90;;;;;;5047545;28;20049;-75
2021/12/20 00:25:06;;;;;;;17.45;3.53;;;2.50;99.90;;;;;;5048217;28;20025;-73
2021/12/20 00:27:32;;;;;;;6.15;1.80;;;2.40;99.90;;;;;;5048044;28;20033;-74
2021/12/20 00:29:58;;;;;;;2.28;1.52;;;2.40;99.90;;;;;;5047007;28;20026;-73
2021/12/20 00:32:24;;;;;;;14.75;1.92;;;2.30;99.90;;;;;;5048017;28;20048;-74
2021/12/20 00:34:50;;;;;;;16.80;3.00;;;2.30;99.90;;;;;;5047562;28;20025;-73
2021/12/20 00:42:44;;;;;;;9.30;2.05;;;2.20;99.90;;;;;;5048061;28;20057;-73
2021/12/20 00:45:12;;;;;;;6.97;1.77;;;2.10;99.90;;;;;;5048038;28;20033;-73
2021/12/20 00:47:38;;;;;;;10.13;2.17;;;2.20;99.90;;;;;;5047726;28;20059;-73
2021/12/20 00:50:15;;;;;;;12.82;2.63;;;2.20;99.90;;;;;;5046443;28;20029;-73
2021/12/20 00:52:42;;;;;;;11.82;1.75;;;2.10;99.90;;;;;;5046545;28;20026;-74
2021/12/20 00:55:09;;;;;;;6.72;2.30;;;2.10;99.90;;;;;;5047710;28;20025;-73
2021/12/20 00:57:34;;;;;;;14.48;2.40;;;2.10;99.90;;;;;;5047436;28;20056;-74
2021/12/20 01:00:00;;;;;;;10.15;1.77;;;2.10;99.90;;;;;;5046311;28;20026;-74
2021/12/20 01:02:26;;;;;;;14.18;2.70;;;2.10;99.90;;;;;;5047357;28;20034;-74
2021/12/20 01:04:52;;;;;;;22.95;2.38;;;2.10;99.90;;;;;;5047476;28;20048;-74
2021/12/20 01:07:18;;;;;;;9.35;1.95;;;2.10;99.90;;;;;;5046039;28;20013;-74
2021/12/20 01:09:43;;;;;;;6.80;1.90;;;2.10;99.90;;;;;;5047469;28;20040;-74
2021/12/20 01:12:16;;;;;;;7.00;1.48;;;2.00;99.90;;;;;;5047149;28;20056;-73
2021/12/20 01:14:43;;;;;;;6.65;1.42;;;2.00;99.90;;;;;;5047446;28;20025;-73
2021/12/20 01:17:08;;;;;;;15.88;1.80;;;2.00;99.90;;;;;;5047303;28;20025;-72
2021/12/20 01:19:36;;;;;;;6.03;1.85;;;2.00;99.90;;;;;;5047256;28;20052;-72
2021/12/20 01:22:03;;;;;;;6.50;1.35;;;2.00;99.90;;;;;;5045621;28;20100;-72
2021/12/20 01:24:29;;;;;;;10.95;2.28;;;2.00;99.90;;;;;;5047078;28;20048;-73
2021/12/20 01:27:03;;;;;;;5.50;1.52;;;2.00;99.90;;;;;;5047098;28;20022;-75
2021/12/20 01:29:29;;;;;;;6.32;1.42;;;2.00;99.90;;;;;;5047086;28;20033;-74
2021/12/20 01:31:55;;;;;;;4.28;1.65;;;1.90;99.90;;;;;;5046593;28;20105;-73
2021/12/20 01:34:20;;;;;;;1.70;1.02;;;2.00;99.90;;;;;;5046956;28;20033;-73
2021/12/20 01:36:46;;;;;;;10.73;2.03;;;2.00;99.90;;;;;;5047059;28;20083;-73
2021/12/20 01:39:12;;;;;;;8.15;2.00;;;1.90;99.90;;;;;;5046801;28;20029;-74
2021/12/20 01:41:42;;;;;;;6.10;1.90;;;1.90;99.90;;;;;;5045255;28;20064;-74
2021/12/20 01:44:09;;;;;;;9.60;1.73;;;1.90;99.90;;;;;;5045276;28;20397;-73
2021/12/20 01:46:35;;;;;;;11.23;1.27;;;1.90;99.90;;;;;;5045303;28;20537;-73
2021/12/20 01:49:04;;;;;;;8.90;1.83;;;1.80;99.90;;;;;;5046590;28;20032;-73
2021/12/20 01:54:17;;;;;;;8.15;1.85;;;1.80;99.90;;;;;;5046973;28;20033;-72
2021/12/20 01:56:44;;;;;;;14.75;2.17;;;1.80;99.90;;;;;;5046379;28;20021;-72
2021/12/20 01:59:11;;;;;;;12.73;1.33;;;1.80;99.90;;;;;;5046556;28;20057;-73
2021/12/20 02:01:37;;;;;;;2.92;1.25;;;1.80;99.90;;;;;;5046343;28;20040;-72
2021/12/20 02:04:07;;;;;;;18.20;1.35;;;1.80;99.90;;;;;;5046296;28;20052;-72
2021/12/20 02:06:37;;;;;;;21.27;2.45;;;1.70;99.90;;;;;;5046510;28;20103;-74
2021/12/20 02:09:12;;;;;;;6.80;2.05;;;1.70;99.90;;;;;;5044607;28;20022;-71
2021/12/20 02:11:40;;;;;;;7.82;1.42;;;1.80;99.90;;;;;;5046226;28;20060;-74
2021/12/20 02:14:08;;;;;;;5.20;1.73;;;1.70;99.90;;;;;;5046169;28;20025;-72
2021/12/20 02:16:34;;;;;;;11.80;1.70;;;1.70;99.90;;;;;;5046096;28;20381;-73
2021/12/20 02:19:05;;;;;;;12.07;2.30;;;1.70;99.90;;;;;;5044696;28;20124;-74
2021/12/20 02:21:31;;;;;;;15.00;1.90;;;1.70;99.90;;;;;;5045712;28;20069;-74
2021/12/20 02:23:57;;;;;;;15.32;1.88;;;1.70;99.90;;;;;;5045817;28;20128;-73
2021/12/20 02:26:25;;;;;;;10.57;1.77;;;1.70;99.90;;;;;;5045763;28;20037;-74
2021/12/20 02:28:53;;;;;;;9.55;2.53;;;1.70;99.90;;;;;;5046032;28;20030;-73
2021/12/20 02:39:25;;;;;;;4.40;1.77;;;1.60;99.90;;;;;;5045815;28;20080;-73
2021/12/20 02:41:51;;;;;;;5.15;1.75;;;1.60;99.90;;;;;;5045545;28;20029;-74
2021/12/20 02:44:19;;;;;;;13.77;2.22;;;1.60;99.90;;;;;;5045018;28;20025;-74
2021/12/20 02:49:17;;;;;;;1.95;1.75;;;1.60;99.90;;;;;;5045666;28;20444;-74
2021/12/20 02:51:43;;;;;;;2.28;0.85;;;1.60;99.90;;;;;;5044125;28;20048;-73
2021/12/20 02:54:11;;;;;;;9.57;1.60;;;1.60;99.90;;;;;;5045319;28;20079;-73
2021/12/20 02:56:38;;;;;;;2.30;0.82;;;1.60;99.90;;;;;;5045336;28;20030;-73
2021/12/20 02:59:07;;;;;;;8.68;1.25;;;1.60;99.90;;;;;;5045293;28;20025;-75
2021/12/20 03:01:35;;;;;;;6.82;0.95;;;1.60;99.90;;;;;;5045478;28;20090;-74
2021/12/20 03:04:01;;;;;;;9.82;1.80;;;1.60;99.90;;;;;;5045477;28;20029;-72
2021/12/20 03:06:37;;;;;;;6.63;1.77;;;1.50;99.90;;;;;;5045374;28;20030;-72
2021/12/20 03:09:04;;;;;;;5.55;1.70;;;1.50;99.90;;;;;;5043580;28;20025;-73
2021/12/20 03:11:39;;;;;;;4.57;1.70;;;1.40;99.90;;;;;;5045232;28;20109;-73
2021/12/20 03:14:31;;;;;;;4.43;2.08;;;1.40;99.90;;;;;;5045300;28;20083;-73
2021/12/20 03:16:59;;;;;;;3.03;1.02;;;1.40;99.90;;;;;;5045121;28;20029;-74
2021/12/20 03:19:25;;;;;;;17.15;2.05;;;1.30;99.90;;;;;;5044994;28;20033;-72
2021/12/20 03:21:51;;;;;;;2.20;1.25;;;1.30;99.90;;;;;;5044745;28;20046;-74
2021/12/20 03:24:18;;;;;;;2.72;1.20;;;1.30;99.90;;;;;;5043867;28;20112;-74
2021/12/20 03:26:44;;;;;;;11.18;1.42;;;1.30;99.90;;;;;;5045130;28;20021;-73
2021/12/20 03:29:11;;;;;;;3.97;0.80;;;1.30;99.90;;;;;;5044754;28;20056;-73
2021/12/20 03:31:37;;;;;;;2.75;1.17;;;1.30;99.90;;;;;;5044913;28;20031;-73
2021/12/20 03:34:03;;;;;;;6.57;1.50;;;1.30;99.90;;;;;;5044916;28;20099;-72
2021/12/20 03:36:29;;;;;;;3.13;1.27;;;1.30;99.90;;;;;;5044893;28;20104;-73
2021/12/20 03:38:55;;;;;;;2.03;1.15;;;1.20;99.90;;;;;;5044806;28;20053;-73
2021/12/20 03:41:22;;;;;;;8.07;1.40;;;1.30;99.90;;;;;;5044982;28;20025;-73
2021/12/20 03:43:49;;;;;;;2.55;1.48;;;1.30;99.90;;;;;;5044730;28;20044;-74
2021/12/20 03:46:15;;;;;;;2.67;0.82;;;1.30;99.90;;;;;;5044954;28;20030;-73
2021/12/20 03:48:41;;;;;;;2.95;1.38;;;1.30;99.90;;;;;;5044752;28;20026;-74
2021/12/20 03:51:06;;;;;;;35.42;3.35;;;1.30;99.90;;;;;;5044852;28;20029;-73
2021/12/20 03:53:33;;;;;;;8.88;2.50;;;1.30;99.90;;;;;;5044841;28;20437;-73
2021/12/20 03:56:00;;;;;;;7.45;1.40;;;1.30;99.90;;;;;;5046415;28;20030;-72
2021/12/20 03:58:27;;;;;;;7.18;1.67;;;1.30;99.90;;;;;;5048855;28;20025;-73
2021/12/20 04:00:55;;;;;;;6.55;1.40;;;1.20;99.90;;;;;;5048816;28;20027;-73
2021/12/20 04:03:21;;;;;;;6.47;1.15;;;1.20;99.90;;;;;;5048760;28;20026;-74
2021/12/20 04:05:46;;;;;;;4.85;1.13;;;1.20;99.90;;;;;;5048847;28;20032;-72
2021/12/20 04:08:12;;;;;;;3.55;1.27;;;1.20;99.90;;;;;;5048567;28;20029;-75
2021/12/20 04:10:38;;;;;;;7.38;1.63;;;1.20;99.90;;;;;;5048338;28;20037;-75
2021/12/20 04:13:03;;;;;;;3.30;1.48;;;1.20;99.90;;;;;;5047039;28;20032;-73
2021/12/20 04:15:29;;;;;;;1.50;0.80;;;1.20;99.90;;;;;;5048453;28;20051;-73
2021/12/20 04:17:55;;;;;;;8.82;1.38;;;1.20;99.90;;;;;;5047093;28;20029;-74
2021/12/20 04:20:21;;;;;;;4.93;1.50;;;1.20;99.90;;;;;;5048537;28;20040;-73
2021/12/20 04:22:46;;;;;;;23.58;2.45;;;1.20;99.90;;;;;;5048190;28;20604;-73
2021/12/20 04:25:12;;;;;;;7.57;1.83;;;1.30;99.90;;;;;;5048363;28;20029;-73
2021/12/20 04:27:38;;;;;;;9.50;2.13;;;1.30;99.90;;;;;;5046701;28;20089;-72
2021/12/20 04:30:09;;;;;;;2.75;1.52;;;1.30;99.90;;;;;;5046997;28;20022;-73
2021/12/20 04:32:36;;;;;;;8.93;1.95;;;1.30;99.90;;;;;;5046791;28;20025;-73
2021/12/20 04:35:02;;;;;;;8.40;1.73;;;1.30;99.90;;;;;;5048064;28;20021;-73
2021/12/20 04:37:28;;;;;;;2.28;0.95;;;1.30;99.90;;;;;;5047930;28;20055;-73
2021/12/20 04:39:53;;;;;;;2.70;1.15;;;1.20;99.90;;;;;;5046560;28;20032;-73
2021/12/20 04:42:19;;;;;;;8.57;2.40;;;1.20;99.90;;;;;;5047918;28;20038;-73
2021/12/20 04:44:45;;;;;;;3.33;1.42;;;1.30;99.90;;;;;;5048014;28;20025;-73
2021/12/20 04:47:10;;;;;;;2.42;1.50;;;1.20;99.90;;;;;;5046553;28;20036;-73
2021/12/20 04:49:36;;;;;;;3.55;1.00;;;1.30;99.90;;;;;;5047581;28;20028;-73
2021/12/20 04:52:02;;;;;;;5.97;1.77;;;1.20;99.90;;;;;;5047728;28;20029;-72
2021/12/20 04:54:27;;;;;;;3.13;1.58;;;1.30;99.90;;;;;;5047461;28;20029;-73
2021/12/20 04:56:53;;;;;;;18.20;2.83;;;1.20;99.90;;;;;;5046520;28;20041;-74
2021/12/20 04:59:19;;;;;;;7.43;2.40;;;1.20;99.90;;;;;;5047565;28;20025;-74
2021/12/20 05:01:44;;;;;;;7.95;1.73;;;1.20;99.90;;;;;;5046463;28;20438;-73
2021/12/20 05:04:10;;;;;;;8.38;1.40;;;1.20;99.90;;;;;;5047473;28;20029;-72
2021/12/20 05:06:35;;;;;;;2.95;1.55;;;1.20;99.90;;;;;;5046890;28;20025;-73
2021/12/20 05:09:04;;;;;;;14.13;1.80;;;1.10;99.90;;;;;;5047338;28;20037;-73
2021/12/20 05:11:31;;;;;;;5.15;2.38;;;1.20;99.90;;;;;;5047292;28;20025;-72
2021/12/20 05:13:56;;;;;;;11.02;2.13;;;1.20;99.90;;;;;;5046008;28;20064;-73
2021/12/20 05:16:22;;;;;;;2.70;1.73;;;1.10;99.90;;;;;;5047236;28;20029;-72
2021/12/20 05:18:48;;;;;;;6.45;2.47;;;1.20;99.90;;;;;;5047212;28;20473;-72
2021/12/20 05:21:13;;;;;;;5.13;1.95;;;1.20;99.90;;;;;;5046879;28;20046;-73
2021/12/20 05:23:39;;;;;;;3.15;1.65;;;1.20;99.90;;;;;;5047155;28;20042;-73
2021/12/20 05:26:05;;;;;;;4.38;1.67;;;1.20;99.90;;;;;;5047199;28;20109;-72
2021/12/20 05:28:31;;;;;;;8.05;1.55;;;1.20;99.90;;;;;;5047127;28;20025;-73
2021/12/20 05:31:00;;;;;;;12.18;2.55;;;1.20;99.90;;;;;;5047206;28;20036;-74
2021/12/20 05:33:26;;;;;;;8.85;2.20;;;1.20;99.90;;;;;;5047107;28;20028;-73
2021/12/20 05:35:52;;;;;;;9.77;1.15;;;1.20;99.90;;;;;;5046980;28;20037;-73
2021/12/20 05:38:18;;;;;;;6.18;1.60;;;1.20;99.90;;;;;;5047010;28;20021;-74
2021/12/20 05:40:43;;;;;;;4.07;2.10;;;1.30;99.90;;;;;;5046938;28;20835;-73
2021/12/20 05:43:09;;;;;;;6.18;2.05;;;1.20;99.90;;;;;;5045287;28;20033;-73
2021/12/20 05:45:35;;;;;;;17.27;3.60;;;1.20;99.90;;;;;;5046768;28;20036;-73
2021/12/20 05:48:02;;;;;;;6.00;1.65;;;1.20;99.90;;;;;;5046621;28;20030;-74
2021/12/20 05:50:32;;;;;;;7.03;2.05;;;1.20;99.90;;;;;;5046539;28;20026;-74
2021/12/20 05:52:58;;;;;;;8.85;1.92;;;1.20;99.90;;;;;;5045566;28;20045;-74
2021/12/20 05:55:24;;;;;;;7.20;2.65;;;1.30;99.90;;;;;;5046565;28;20053;-75
2021/12/20 05:57:49;;;;;;;9.05;2.83;;;1.30;99.90;;;;;;5046695;28;20389;-73
2021/12/20 06:00:18;;;;;;;14.68;2.63;;;1.30;99.90;;;;;;5045402;28;20036;-73
2021/12/20 06:02:46;;;;;;;10.02;3.08;;;1.20;99.90;;;;;;5045061;28;20112;-73
2021/12/20 06:05:12;;;;;;;8.13;2.45;;;1.20;99.90;;;;;;5046238;28;20055;-73
2021/12/20 06:07:40;;;;;;;13.98;2.78;;;1.20;99.90;;;;;;5046292;28;20029;-72
2021/12/20 06:10:08;;;;;;;7.05;2.75;;;1.20;99.90;;;;;;5045987;28;20018;-72
2021/12/20 06:12:35;;;;;;;5.30;1.85;;;1.20;99.90;;;;;;5046320;28;20032;-74
2021/12/20 06:15:01;;;;;;;10.32;2.95;;;1.20;99.90;;;;;;5046325;28;20026;-73
2021/12/20 06:17:27;;;;;;;13.50;3.28;;;1.10;99.90;;;;;;5046146;28;20026;-75
2021/12/20 06:19:53;;;;;;;11.32;2.85;;;1.10;99.90;;;;;;5046339;28;20025;-74
2021/12/20 06:22:18;;;;;;;8.30;2.97;;;1.10;99.90;;;;;;5045443;28;20050;-75
2021/12/20 06:24:44;;;;;;;6.22;2.72;;;1.10;99.90;;;;;;5043632;28;20401;-72
2021/12/20 06:27:09;;;;;;;6.15;3.00;;;1.20;99.90;;;;;;5045600;28;20029;-74
2021/12/20 06:29:36;;;;;;;15.57;3.85;;;1.20;99.90;;;;;;5045800;28;20076;-74
2021/12/20 06:32:02;;;;;;;12.80;3.88;;;1.10;99.90;;;;;;5045952;28;20028;-75
2021/12/20 06:34:28;;;;;;;18.48;4.07;;;1.10;99.90;;;;;;5044744;28;20401;-74
2021/12/20 06:36:54;;;;;;;7.30;3.42;;;1.10;99.90;;;;;;5045904;28;20029;-73
2021/12/20 06:39:19;;;;;;;9.93;3.28;;;1.10;99.90;;;;;;5045633;28;20105;-74
2021/12/20 06:41:45;;;;;;;14.73;3.45;;;1.10;99.90;;;;;;5044371;28;20076;-74
2021/12/20 06:44:11;;;;;;;9.25;3.22;;;1.10;99.90;;;;;;5045675;28;20489;-75
2021/12/20 06:46:40;;;;;;;6.68;3.03;;;1.20;99.90;;;;;;5044411;28;20112;-74
2021/12/20 06:49:09;;;;;;;12.63;3.63;;;1.20;99.90;;;;;;5045669;28;20085;-74
2021/12/20 06:51:40;;;;;;;8.55;4.20;;;1.20;99.90;;;;;;5045538;28;20022;-73
2021/12/20 06:54:10;;;;;;;11.32;3.20;;;1.20;99.90;;;;;;5045410;28;20025;-74
2021/12/20 06:56:36;;;;;;;10.25;3.35;;;1.20;99.90;;;;;;5045281;28;20433;-73
2021/12/20 06:59:02;;;;;;;11.18;3.85;;;1.20;99.90;;;;;;5044086;28;20036;-77
2021/12/20 07:01:29;;;;;;;10.38;3.78;;;1.20;99.90;;;;;;5042623;28;20026;-77
2021/12/20 07:03:56;;;;;;;25.33;4.07;;;1.20;99.90;;;;;;5033273;28;20041;-74
2021/12/20 07:06:21;;;;;;;11.93;3.60;;;1.20;99.90;;;;;;5044175;28;20045;-76
2021/12/20 07:08:51;;;;;;;6.32;3.60;;;1.20;99.90;;;;;;5044823;28;20494;-75
2021/12/20 07:11:18;;;;;;;11.57;3.58;;;1.10;99.90;;;;;;5044798;28;20052;-76
2021/12/20 07:13:44;;;;;;;9.25;4.90;;;1.20;99.90;;;;;;5038130;28;20060;-75
2021/12/20 07:16:11;;;;;;;14.38;5.22;;;1.20;99.90;;;;;;5040365;28;20034;-76
2021/12/20 07:18:37;;;;;;;9.13;4.50;;;1.20;99.90;;;;;;5026118;28;20022;-75
2021/12/20 07:21:03;;;;;;;23.92;6.22;;;1.20;99.90;;;;;;5041732;28;20144;-77
2021/12/20 07:23:29;;;;;;;25.25;8.85;;;1.20;99.90;;;;;;5024859;28;20034;-77
2021/12/20 07:25:54;;;;;;;23.30;9.15;;;1.20;99.90;;;;;;5042205;28;20029;-77
2021/12/20 07:28:20;;;;;;;25.10;8.40;;;1.20;99.90;;;;;;5044809;28;20116;-76
2021/12/20 07:30:48;;;;;;;24.95;8.38;;;1.20;99.90;;;;;;5037983;28;20390;-75
2021/12/20 07:33:15;;;;;;;38.10;7.32;;;1.20;99.90;;;;;;5027046;28;20034;-77
2021/12/20 07:35:42;;;;;;;18.52;4.70;;;1.20;99.90;;;;;;5041839;28;20033;-77
2021/12/20 07:38:12;;;;;;;16.38;5.18;;;1.20;99.90;;;;;;5043957;28;20596;-77
2021/12/20 07:40:38;;;;;;;21.48;4.53;;;1.20;99.90;;;;;;5041594;28;20018;-76
2021/12/20 07:43:03;;;;;;;11.18;4.57;;;1.20;99.90;;;;;;5043964;28;20118;-77
2021/12/20 07:45:29;;;;;;;13.32;4.75;;;1.20;99.90;;;;;;5038755;28;20022;-77
2021/12/20 07:47:55;;;;;;;12.48;4.95;;;1.20;99.90;;;;;;5044850;28;20059;-76
2021/12/20 07:50:22;;;;;;;21.08;5.60;;;1.20;99.90;;;;;;5043436;28;20535;-76
2021/12/20 07:52:51;;;;;;;8.68;4.13;;;1.20;99.90;;;;;;5044677;28;20489;-77
2021/12/20 07:55:20;;;;;;;16.48;5.93;;;1.20;99.90;;;;;;5043673;28;20040;-76
2021/12/20 07:57:45;;;;;;;10.15;4.13;;;1.20;99.90;;;;;;5040576;28;20037;-76
2021/12/20 08:00:12;;;;;;;9.07;4.90;;;1.30;99.90;;;;;;5038697;28;20036;-76
2021/12/20 08:02:38;;;;;;;21.80;5.65;;;1.30;99.90;;;;;;5038503;28;20055;-76
2021/12/20 08:05:04;;;;;;;18.20;6.05;;;1.30;99.90;;;;;;5044069;28;20056;-75
2021/12/20 08:07:31;;;;;;;11.35;4.00;;;1.40;99.90;;;;;;5041057;28;20433;-74
2021/12/20 08:09:57;;;;;;;14.45;4.28;;;1.40;99.90;;;;;;5040417;28;20030;-76
2021/12/20 08:12:23;;;;;;;12.38;3.78;;;1.50;99.90;;;;;;5042638;28;20014;-75
2021/12/20 08:14:49;;;;;;;5.82;3.05;;;1.70;99.90;;;;;;5044582;28;20037;-76
2021/12/20 08:17:15;;;;;;;10.57;3.15;;;2.10;99.90;;;;;;5043104;28;20048;-75
2021/12/20 08:19:40;;;;;;;11.43;3.95;;;2.40;99.90;;;;;;5044492;28;20033;-74
2021/12/20 08:22:06;;;;;;;10.82;3.78;;;2.70;99.90;;;;;;5044052;28;20055;-75
2021/12/20 08:24:32;;;;;;;6.53;3.22;;;3.00;99.90;;;;;;5044252;28;20055;-75
2021/12/20 08:26:58;;;;;;;5.97;2.92;;;3.20;99.90;;;;;;5041888;28;20038;-76
2021/12/20 08:29:24;;;;;;;9.23;4.15;;;3.40;99.90;;;;;;5044412;28;20373;-77
2021/12/20 08:31:51;;;;;;;9.43;3.70;;;3.60;99.90;;;;;;5044417;28;20035;-76
2021/12/20 08:34:16;;;;;;;7.38;2.47;;;3.80;99.90;;;;;;5044631;28;20053;-76
2021/12/20 08:36:42;;;;;;;10.60;2.35;;;4.00;99.90;;;;;;5044500;28;20025;-75
2021/12/20 08:39:08;;;;;;;5.68;2.22;;;4.20;99.90;;;;;;5044157;28;20034;-75
2021/12/20 08:41:34;;;;;;;11.23;2.55;;;4.50;99.90;;;;;;5042966;28;20032;-76
2021/12/20 08:44:00;;;;;;;7.78;2.20;;;4.60;99.90;;;;;;5047543;28;20065;-76
2021/12/20 08:46:26;;;;;;;6.53;2.45;;;4.60;99.90;;;;;;5047842;28;20048;-75
2021/12/20 08:48:56;;;;;;;5.35;2.75;;;4.50;99.90;;;;;;5046573;28;20029;-75
2021/12/20 08:51:21;;;;;;;8.05;2.00;;;4.40;99.90;;;;;;5047420;28;20022;-76
2021/12/20 08:53:47;;;;;;;4.18;1.95;;;4.20;99.90;;;;;;5047275;28;20057;-75
2021/12/20 08:56:13;;;;;;;8.77;2.38;;;4.10;99.90;;;;;;5044392;28;20033;-75
2021/12/20 08:58:39;;;;;;;6.88;2.13;;;4.00;99.90;;;;;;5044679;28;20056;-75
2021/12/20 09:01:04;;;;;;;10.45;3.03;;;4.00;99.90;;;;;;5046601;28;20036;-75
2021/12/20 09:03:30;;;;;;;5.97;2.60;;;4.00;99.90;;;;;;5045687;28;20045;-76
2021/12/20 09:05:56;;;;;;;7.63;2.83;;;4.10;99.90;;;;;;5042259;28;20029;-76
2021/12/20 09:08:25;;;;;;;7.10;3.05;;;4.10;99.90;;;;;;5036472;28;20022;-78
2021/12/20 09:10:51;;;;;;;7.45;2.45;;;4.00;99.90;;;;;;5027081;28;20046;-77
2021/12/20 09:13:17;;;;;;;11.48;2.60;;;4.10;99.90;;;;;;5028096;28;20025;-75
2021/12/20 09:15:43;;;;;;;10.18;3.03;;;4.40;99.90;;;;;;5040938;28;20321;-76
2021/12/20 09:18:11;;;;;;;7.70;2.20;;;4.70;99.90;;;;;;5040155;28;20479;-77
2021/12/20 09:20:37;;;;;;;9.35;2.50;;;5.10;99.90;;;;;;5042989;28;20036;-74
2021/12/20 09:23:05;;;;;;;9.88;2.95;;;5.50;99.90;;;;;;5045543;28;20049;-76
2021/12/20 09:25:46;;;;;;;5.82;2.25;;;6.00;99.90;;;;;;5047071;28;20030;-78
2021/12/20 09:28:16;;;;;;;5.40;2.35;;;6.40;99.90;;;;;;5040802;28;20026;-77
2021/12/20 09:30:45;;;;;;;13.75;2.15;;;6.80;99.90;;;;;;5038859;28;20129;-75
2021/12/20 09:33:10;;;;;;;3.53;1.45;;;7.00;99.90;;;;;;5040745;28;20017;-76
2021/12/20 09:35:37;;;;;;;20.35;2.42;;;7.30;99.90;;;;;;5045481;28;20029;-76
2021/12/20 09:38:08;;;;;;;7.78;2.40;;;7.60;99.90;;;;;;5044939;28;20363;-76
2021/12/20 09:40:37;;;;;;;8.40;1.58;;;7.90;99.90;;;;;;5045249;28;20026;-76
2021/12/20 09:43:10;;;;;;;9.10;1.65;;;8.10;99.90;;;;;;5046654;28;20038;-76
2021/12/20 09:45:37;;;;;;;2.53;1.65;;;8.40;99.90;;;;;;5045935;28;20089;-76
2021/12/20 09:48:03;;;;;;;2.22;1.58;;;8.70;99.90;;;;;;5046779;28;20036;-76
2021/12/20 09:50:29;;;;;;;1.67;1.13;;;9.00;99.90;;;;;;5041315;28;20072;-76
2021/12/20 09:52:56;;;;;;;4.22;1.38;;;9.30;99.90;;;;;;5026718;28;20022;-77
2021/12/20 09:55:23;;;;;;;8.80;1.67;;;9.30;99.90;;;;;;5029287;28;20038;-76
2021/12/20 09:57:51;;;;;;;3.28;1.35;;;9.30;99.90;;;;;;5043464;28;20051;-77
2021/12/20 10:00:23;;;;;;;5.15;1.05;;;9.10;99.90;;;;;;5035448;28;20037;-75
2021/12/20 10:02:49;;;;;;;9.30;1.50;;;8.90;99.90;;;;;;5034759;28;20048;-76
2021/12/20 10:05:17;;;;;;;4.70;1.35;;;8.80;99.90;;;;;;5040258;28;20021;-76
2021/12/20 10:07:50;;;;;;;4.00;1.10;;;8.90;99.90;;;;;;5044470;28;20057;-76
2021/12/20 10:10:46;;;;;;;3.70;1.13;;;9.10;99.90;;;;;;5045424;28;20060;-77
2021/12/20 10:13:27;;;;;;;6.32;1.50;;;9.40;99.90;;;;;;5044750;28;20345;-75
2021/12/20 10:15:56;;;;;;;2.33;1.02;;;9.80;99.90;;;;;;5028670;28;20026;-78
2021/12/20 10:18:25;;;;;;;7.88;1.10;;;10.10;99.90;;;;;;5025356;28;20026;-77
2021/12/20 10:20:54;;;;;;;2.63;0.80;;;10.30;99.90;;;;;;5026152;28;20033;-76
2021/12/20 10:23:25;;;;;;;6.38;0.90;;;10.50;99.90;;;;;;5034307;28;20037;-75
2021/12/20 10:26:09;;;;;;;3.95;1.08;;;10.70;99.90;;;;;;5043722;28;20052;-76
2021/12/20 10:28:37;;;;;;;2.55;1.38;;;10.90;99.90;;;;;;5045886;28;20048;-75
2021/12/20 10:31:24;;;;;;;4.88;1.17;;;10.80;99.90;;;;;;5042815;28;20030;-75
2021/12/20 10:33:56;;;;;;;4.00;1.42;;;10.80;99.90;;;;;;5036046;28;20036;-77
2021/12/20 10:36:23;;;;;;;2.90;1.52;;;10.90;99.90;;;;;;5036971;28;20117;-77
2021/12/20 10:38:59;;;;;;;5.03;1.20;;;10.90;99.90;;;;;;5043749;28;20022;-78
2021/12/20 10:41:37;;;;;;;4.82;1.38;;;10.90;99.90;;;;;;5043595;28;20037;-78
2021/12/20 10:44:17;;;;;;;1.10;0.70;;;10.60;99.90;;;;;;5045004;28;20393;-75
2021/12/20 10:46:52;;;;;;;3.33;1.15;;;10.50;99.90;;;;;;5042846;28;20425;-75
2021/12/20 10:49:30;;;;;;;2.58;1.23;;;10.70;99.90;;;;;;5041314;28;20469;-77
2021/12/20 10:52:05;;;;;;;6.32;1.38;;;10.80;99.90;;;;;;5042045;28;20034;-77
2021/12/20 10:54:48;;;;;;;1.40;0.88;;;11.10;99.90;;;;;;5033993;28;20025;-76
2021/12/20 10:57:28;;;;;;;3.83;1.52;;;11.20;99.90;;;;;;5041352;28;20021;-76
2021/12/20 11:00:16;;;;;;;3.42;1.10;;;11.40;99.90;;;;;;5043721;28;20029;-78
2021/12/20 11:03:20;;;;;;;4.95;1.58;;;11.80;99.90;;;;;;5044842;28;20500;-77
2021/12/20 11:06:11;;;;;;;4.65;1.02;;;12.30;99.90;;;;;;5043937;28;20532;-76
2021/12/20 11:11:24;;;;;;;8.77;1.45;;;12.90;99.90;;;;;;5028288;28;20088;-78
2021/12/20 11:13:52;;;;;;;2.47;1.17;;;13.00;99.90;;;;;;5035464;28;20034;-76
2021/12/20 11:16:42;;;;;;;4.28;1.20;;;13.10;99.90;;;;;;5024980;28;20037;-77
2021/12/20 11:19:17;;;;;;;7.28;1.38;;;13.10;99.90;;;;;;5026034;28;20034;-77
2021/12/20 11:21:59;;;;;;;2.13;0.80;;;13.00;99.90;;;;;;5037963;28;20058;-76
2021/12/20 11:24:29;;;;;;;3.22;1.00;;;13.10;99.90;;;;;;5024779;28;20053;-78
2021/12/20 11:26:58;;;;;;;5.18;1.63;;;13.00;99.90;;;;;;5028198;28;20049;-75
2021/12/20 11:29:24;;;;;;;3.30;1.60;;;12.90;99.90;;;;;;5032629;28;20032;-77
2021/12/20 11:31:53;;;;;;;3.35;1.73;;;12.80;99.90;;;;;;5030955;28;20029;-79
2021/12/20 11:34:20;;;;;;;5.93;1.63;;;12.90;99.90;;;;;;5028342;28;20025;-76
2021/12/20 11:36:45;;;;;;;6.18;2.15;;;13.00;99.90;;;;;;5044010;28;20089;-77
2021/12/20 11:39:12;;;;;;;7.78;2.03;;;13.20;99.90;;;;;;5043744;28;20029;-76
2021/12/20 11:41:39;;;;;;;6.03;2.28;;;13.30;99.90;;;;;;5039365;28;20136;-75
2021/12/20 11:44:07;;;;;;;4.90;1.77;;;13.50;99.90;;;;;;5038961;28;20042;-79
2021/12/20 11:46:41;;;;;;;3.45;1.60;;;13.70;99.90;;;;;;5024504;28;20030;-80
2021/12/20 11:49:08;;;;;;;4.20;1.70;;;14.10;99.90;;;;;;5042124;28;20038;-78
2021/12/20 11:51:55;;;;;;;7.70;1.50;;;14.00;99.90;;;;;;5048156;28;20038;-78
2021/12/20 11:54:42;;;;;;;4.70;1.40;;;13.90;99.90;;;;;;5022868;28;20030;-77
2021/12/20 11:57:30;;;;;;;3.17;1.67;;;14.00;99.90;;;;;;5041515;28;20041;-76
2021/12/20 12:00:02;;;;;;;6.30;1.73;;;14.30;99.90;;;;;;5043184;28;20029;-77
2021/12/20 12:02:34;;;;;;;7.38;1.90;;;14.60;99.90;;;;;;5042846;28;20037;-77
2021/12/20 12:05:09;;;;;;;8.30;2.80;;;14.80;99.90;;;;;;5033552;28;20056;-77
2021/12/20 12:07:36;;;;;;;10.45;2.70;;;15.10;99.90;;;;;;5029587;28;20086;-76
2021/12/20 12:10:17;;;;;;;4.50;2.13;;;15.00;99.90;;;;;;5024817;28;20022;-77
2021/12/20 12:12:46;;;;;;;4.45;1.85;;;15.10;99.90;;;;;;5031077;28;20377;-76
2021/12/20 12:15:21;;;;;;;2.03;1.08;;;15.20;99.90;;;;;;5044550;28;20034;-75
2021/12/20 12:17:53;;;;;;;3.60;1.30;;;15.20;99.90;;;;;;5048343;28;20608;-77
2021/12/20 12:20:40;;;;;;;1.63;0.88;;;14.90;99.90;;;;;;5044466;28;20393;-78
2021/12/20 12:23:19;;;;;;;5.22;1.10;;;14.40;99.90;;;;;;5036907;28;20144;-76
2021/12/20 12:25:50;;;;;;;2.10;1.30;;;13.90;99.90;;;;;;5036964;28;20080;-76
2021/12/20 12:28:47;;;;;;;4.25;1.25;;;13.60;99.90;;;;;;5026530;28;20057;-76
2021/12/20 12:31:13;;;;;;;3.00;1.50;;;13.20;99.90;;;;;;5026872;28;20018;-75
2021/12/20 12:34:08;;;;;;;2.13;1.30;;;13.00;99.90;;;;;;5027045;28;20052;-78
2021/12/20 12:36:40;;;;;;;;;;;13.10;99.90;;;;;;5031151;28;20091;-77
2021/12/20 12:39:27;;;;;;;2.88;1.65;;;13.10;99.90;;;;;;5033911;28;20390;-75
2021/12/20 12:41:58;;;;;;;2.97;1.02;;;13.40;99.90;;;;;;5032137;28;20402;-74
2021/12/20 12:44:30;;;;;;;2.47;1.10;;;13.80;99.90;;;;;;5034106;28;20050;-75
2021/12/20 12:47:03;;;;;;;1.90;1.00;;;14.40;99.90;;;;;;5041097;28;20056;-76
2021/12/20 12:49:37;;;;;;;5.57;1.38;;;14.40;99.90;;;;;;5031569;28;20094;-75
2021/12/20 12:52:28;;;;;;;2.35;1.05;;;13.90;99.90;;;;;;5041875;28;20061;-76
2021/12/20 12:55:09;;;;;;;8.68;1.38;;;12.70;99.90;;;;;;5046106;28;20106;-77
2021/12/20 12:57:40;;;;;;;10.75;1.65;;;11.40;99.90;;;;;;5045496;28;20029;-77
2021/12/20 13:00:29;;;;;;;1.55;0.85;;;10.60;99.90;;;;;;5037701;28;20168;-77
2021/12/20 13:03:00;;;;;;;2.83;1.13;;;9.90;99.90;;;;;;5037904;28;20038;-77
2021/12/20 13:05:27;;;;;;;6.35;1.65;;;9.40;99.90;;;;;;5033015;28;20071;-76
2021/12/20 13:07:59;;;;;;;1.67;1.15;;;9.00;99.90;;;;;;5061778;28;20057;-77
2021/12/20 13:10:38;;;;;;;4.35;1.55;;;8.80;99.90;;;;;;5045366;28;20063;-76
2021/12/20 13:13:24;;;;;;;4.85;1.60;;;8.60;99.90;;;;;;5046403;28;20416;-76
2021/12/20 13:16:05;;;;;;;6.32;1.50;;;8.30;99.90;;;;;;5044453;28;20393;-78
2021/12/20 13:18:36;;;;;;;3.22;1.23;;;8.20;99.90;;;;;;5041740;28;20076;-77
2021/12/20 13:21:05;;;;;;;3.85;1.13;;;8.10;99.90;;;;;;5041716;28;20030;-76
2021/12/20 13:23:41;;;;;;;1.70;1.05;;;7.90;99.90;;;;;;5045323;28;20045;-76